Time;durP1;ratioP1;P1;durP2;ratioP2;P2;SDS_P1;SDS_P2;PMS_P1;PMS_P2;Temp;Humidity;BMP_temperature;BMP_pressure;BME280_temperature;BME280_humidity;BME280_pressure;Samples;Min_cycle;Max_cycle;Signal;HPM_P1;HPM_P2
2022/05/17 07:41:35;;;;;;;9.40;5.45;;;;;;;;;;5075884;28;20157;-83
2022/05/17 07:44:05;;;;;;;8.20;5.38;;;;;;;;;;5061603;28;20029;-83
2022/05/17 07:46:31;;;;;;;12.57;4.88;;;;;;;;;;5055988;28;20192;-84
2022/05/17 07:48:57;;;;;;;9.70;4.38;;;;;;;;;;5052838;28;20028;-83
2022/05/17 07:51:23;;;;;;;7.88;3.90;;;;;;;;;;5053422;28;20032;-83
2022/05/17 07:53:49;;;;;;;7.43;3.83;;;;;;;;;;5049734;28;20453;-80
2022/05/17 07:56:16;;;;;;;9.05;4.07;;;;;;;;;;5058567;28;20025;-83
2022/05/17 07:58:45;;;;;;;8.48;4.00;;;;;;;;;;5053632;28;20130;-86
2022/05/17 08:01:12;;;;;;;6.10;3.10;;;;;;;;;;5056584;28;20033;-83
2022/05/17 08:03:38;;;;;;;9.18;3.50;;;;;;;;;;5064755;28;20112;-85
2022/05/17 08:06:05;;;;;;;7.15;3.30;;;;;;;;;;5054772;28;20032;-82
2022/05/17 08:08:34;;;;;;;6.53;3.28;;;;;;;;;;5059183;28;20025;-83
2022/05/17 08:11:01;;;;;;;9.52;2.70;;;;;;;;;;5057856;28;20052;-85
2022/05/17 08:13:27;;;;;;;4.53;2.70;;;;;;;;;;5054235;28;20059;-82
2022/05/17 08:15:53;;;;;;;6.68;2.88;;;;;;;;;;5061379;28;20029;-80
2022/05/17 08:18:20;;;;;;;6.35;3.72;;;;;;;;;;5066390;28;20036;-83
2022/05/17 08:20:46;;;;;;;6.82;2.38;;;;;;;;;;5056999;28;20042;-83
2022/05/17 08:23:13;;;;;;;5.32;2.40;;;;;;;;;;5051568;28;20021;-83
2022/05/17 08:28:24;;;;;;;6.80;2.80;;;;;;;;;;5051423;28;20578;-81
2022/05/17 08:30:50;;;;;;;4.22;2.08;;;;;;;;;;5053503;28;20057;-84
2022/05/17 08:33:17;;;;;;;4.85;1.70;;;;;;;;;;5056650;28;20024;-81
2022/05/17 08:35:43;;;;;;;6.55;2.33;;;;;;;;;;5056170;28;20021;-83
2022/05/17 08:38:11;;;;;;;4.53;2.00;;;;;;;;;;5052840;28;20037;-82
2022/05/17 08:40:43;;;;;;;7.43;2.47;;;;;;;;;;5057237;28;20024;-83
2022/05/17 08:43:28;;;;;;;4.40;2.35;;;;;;;;;;5066793;28;20088;-82
2022/05/17 08:45:57;;;;;;;4.85;2.50;;;;;;;;;;5078980;28;20064;-81
2022/05/17 08:48:25;;;;;;;5.83;2.33;;;;;;;;;;5084475;28;20034;-81
2022/05/17 08:50:51;;;;;;;4.55;2.40;;;;;;;;;;5079856;28;20024;-82
2022/05/17 08:53:18;;;;;;;4.20;1.90;;;;;;;;;;5058919;28;20064;-82
2022/05/17 08:55:45;;;;;;;5.78;2.38;;;;;;;;;;5059725;28;20029;-82
2022/05/17 08:58:13;;;;;;;6.28;2.30;;;;;;;;;;5057804;28;20024;-83
2022/05/17 09:00:47;;;;;;;5.30;2.15;;;;;;;;;;5063808;28;20049;-82
2022/05/17 09:03:42;;;;;;;4.93;2.35;;;;;;;;;;5066495;28;20672;-82
2022/05/17 09:06:24;;;;;;;5.13;2.13;;;;;;;;;;5066295;28;20043;-84
2022/05/17 09:09:09;;;;;;;6.90;2.40;;;;;;;;;;5061704;28;20009;-84
2022/05/17 09:11:44;;;;;;;5.43;2.58;;;;;;;;;;5063239;28;20024;-83
2022/05/17 09:14:16;;;;;;;5.20;2.15;;;;;;;;;;5069518;28;20025;-82
2022/05/17 09:17:02;;;;;;;6.88;2.50;;;;;;;;;;5071220;28;20033;-84
2022/05/17 09:19:28;;;;;;;6.68;2.42;;;;;;;;;;5069098;28;20032;-88
2022/05/17 09:21:58;;;;;;;4.93;2.45;;;;;;;;;;5080447;28;20100;-83
2022/05/17 09:24:26;;;;;;;4.60;2.50;;;;;;;;;;5059985;28;22611;-81
2022/05/17 09:26:54;;;;;;;6.88;2.67;;;;;;;;;;5052245;28;20570;-81
2022/05/17 09:29:29;;;;;;;6.78;2.63;;;;;;;;;;5064861;28;20029;-80
2022/05/17 09:31:59;;;;;;;3.78;2.58;;;;;;;;;;5064745;28;20033;-80
2022/05/17 09:34:45;;;;;;;4.03;2.45;;;;;;;;;;5070384;28;20043;-81
2022/05/17 09:37:15;;;;;;;8.85;3.00;;;;;;;;;;5055947;28;20039;-81
2022/05/17 09:39:47;;;;;;;7.45;2.70;;;;;;;;;;5059635;28;20031;-82
2022/05/17 09:42:20;;;;;;;6.50;2.63;;;;;;;;;;5054431;28;20028;-84
2022/05/17 09:44:46;;;;;;;6.65;3.03;;;;;;;;;;5062127;28;20037;-84
2022/05/17 09:47:39;;;;;;;7.65;3.33;;;;;;;;;;5085607;28;20032;-84
2022/05/17 09:53:04;;;;;;;4.00;2.60;;;;;;;;;;5079807;28;20039;-83
2022/05/17 09:55:32;;;;;;;4.30;2.60;;;;;;;;;;5073199;28;20028;-86
2022/05/17 09:58:01;;;;;;;5.35;2.90;;;;;;;;;;5059035;28;20081;-84
2022/05/17 10:00:41;;;;;;;7.47;2.83;;;25.00;92.00;;;;;;5061334;28;20225;-82
2022/05/17 10:03:16;;;;;;;4.45;2.53;;;;;;;;;;5058649;28;20115;-82
2022/05/17 10:06:34;;;;;;;4.55;2.83;;;25.20;91.50;;;;;;5059491;28;20044;-84
2022/05/17 10:09:04;;;;;;;6.35;2.78;;;;;;;;;;5050949;28;20033;-84
2022/05/17 10:11:41;;;;;;;7.13;3.30;;;25.30;91.50;;;;;;5050499;28;20066;-82
2022/05/17 10:14:09;;;;;;;6.90;3.13;;;;;;;;;;5052528;28;20371;-85
2022/05/17 10:16:39;;;;;;;7.05;3.20;;;;;;;;;;5049111;28;20037;-86
2022/05/17 10:19:05;;;;;;;4.90;3.13;;;;;;;;;;5064011;28;20063;-80
2022/05/17 10:21:58;;;;;;;6.95;2.97;;;25.30;91.20;;;;;;5056160;28;20408;-84
2022/05/17 10:24:48;;;;;;;7.30;3.05;;;25.50;91.00;;;;;;5050092;28;20033;-84
2022/05/17 10:27:35;;;;;;;6.30;2.92;;;25.60;90.40;;;;;;5052463;28;20086;-84
2022/05/17 10:30:07;;;;;;;7.13;2.70;;;25.70;89.90;;;;;;5056340;28;20024;-82
2022/05/17 10:32:44;;;;;;;4.53;2.78;;;;;;;;;;5062784;28;20028;-87
2022/05/17 10:35:21;;;;;;;5.25;2.45;;;25.80;88.10;;;;;;5069676;28;20032;-86
2022/05/17 10:37:53;;;;;;;6.22;2.88;;;25.80;88.10;;;;;;5071859;28;20047;-83
2022/05/17 10:40:24;;;;;;;5.70;2.60;;;25.80;89.80;;;;;;5071179;28;20039;-86
2022/05/17 10:42:51;;;;;;;6.25;2.80;;;26.30;87.80;;;;;;5069796;28;20471;-85
2022/05/17 10:45:32;;;;;;;4.28;2.65;;;26.20;89.20;;;;;;5063156;28;20038;-84
2022/05/17 10:47:58;;;;;;;5.03;2.78;;;;;;;;;;5063711;28;20025;-85
2022/05/17 10:50:53;;;;;;;5.32;2.60;;;26.20;84.90;;;;;;5071979;28;20041;-84
2022/05/17 10:53:56;;;;;;;4.80;2.72;;;26.20;85.80;;;;;;5067989;28;20035;-85
2022/05/17 10:56:40;;;;;;;4.30;2.95;;;26.10;87.10;;;;;;5067500;28;20407;-85
2022/05/17 10:59:42;;;;;;;6.07;2.80;;;26.10;86.70;;;;;;5069397;28;20537;-85
2022/05/17 11:02:30;;;;;;;5.85;2.38;;;25.50;85.80;;;;;;5065330;28;20097;-88
2022/05/17 11:05:21;;;;;;;4.05;2.63;;;25.30;87.40;;;;;;5071756;28;20021;-85
2022/05/17 11:08:06;;;;;;;4.28;2.42;;;25.20;86.60;;;;;;5071596;28;20035;-86
2022/05/17 11:10:54;;;;;;;8.30;2.85;;;25.10;87.50;;;;;;5067699;28;20039;-83
2022/05/17 11:13:31;;;;;;;5.22;2.80;;;25.20;87.30;;;;;;5068212;28;20075;-84
2022/05/17 11:16:12;;;;;;;4.38;2.42;;;25.40;86.40;;;;;;5073760;28;20088;-85
2022/05/17 11:18:50;;;;;;;3.58;2.60;;;25.50;86.50;;;;;;5071457;28;20474;-85
2022/05/17 11:21:37;;;;;;;4.75;2.58;;;25.50;86.30;;;;;;5086054;28;20100;-87
2022/05/17 11:24:31;;;;;;;5.07;2.95;;;25.60;86.20;;;;;;5073538;28;20054;-85
2022/05/17 11:27:03;;;;;;;3.65;2.25;;;25.80;85.60;;;;;;5066776;28;20071;-87
2022/05/17 11:29:40;;;;;;;4.85;2.60;;;25.90;84.00;;;;;;5080019;28;20028;-85
2022/05/17 11:32:26;;;;;;;7.75;3.95;;;25.90;81.50;;;;;;5079075;28;20020;-82
2022/05/17 11:34:56;;;;;;;5.32;2.40;;;27.30;84.20;;;;;;5058719;28;20032;-86
2022/05/17 11:37:21;;;;;;;;;;;;;;;;;;5062778;28;20029;-85
2022/05/17 11:39:48;;;;;;;4.30;2.42;;;;;;;;;;5056126;28;19927;-85
2022/05/17 11:43:40;;;;;;;5.35;2.40;;;25.40;82.40;;;;;;5058550;28;20021;-87
2022/05/17 11:45:44;;;;;;;2.88;2.08;;;25.50;81.70;;;;;;5059127;28;20075;-85
2022/05/17 11:48:51;;;;;;;4.20;2.33;;;25.50;81.60;;;;;;5072901;28;20048;-84
2022/05/17 11:51:17;;;;;;;4.60;2.67;;;25.80;81.00;;;;;;5069812;28;20033;-85
2022/05/17 11:53:47;;;;;;;4.03;2.40;;;26.30;80.10;;;;;;5075073;28;20029;-84
2022/05/17 11:56:23;;;;;;;4.70;2.47;;;26.20;80.50;;;;;;5066242;28;20048;-81
2022/05/17 11:59:09;;;;;;;6.68;2.55;;;26.50;80.70;;;;;;5051365;28;20033;-82
2022/05/17 12:01:35;;;;;;;3.97;2.50;;;26.40;80.20;;;;;;5053334;28;20497;-83
2022/05/17 12:04:03;;;;;;;3.67;2.40;;;26.50;80.80;;;;;;5059397;28;20433;-83
2022/05/17 12:06:28;;;;;;;7.30;2.90;;;26.50;79.50;;;;;;5052703;28;20220;-84
2022/05/17 12:08:55;;;;;;;4.95;2.40;;;26.70;80.30;;;;;;5061986;28;20433;-82
2022/05/17 12:11:28;;;;;;;6.25;2.80;;;26.20;81.20;;;;;;5061382;28;20493;-83
2022/05/17 12:13:59;;;;;;;4.43;2.72;;;26.00;82.40;;;;;;5059121;28;20035;-82
2022/05/17 12:16:31;;;;;;;5.88;3.17;;;26.00;83.20;;;;;;5062936;28;20037;-81
2022/05/17 12:19:04;;;;;;;4.35;3.00;;;25.90;82.90;;;;;;5061208;28;20032;-82
2022/05/17 12:21:49;;;;;;;4.65;3.00;;;26.20;82.00;;;;;;5054932;28;20029;-84
2022/05/17 12:24:39;;;;;;;5.32;2.40;;;26.20;82.20;;;;;;5056653;28;20050;-83
2022/05/17 12:27:22;;;;;;;3.42;2.20;;;26.30;80.50;;;;;;5054498;28;20033;-83
2022/05/17 12:33:06;;;;;;;5.55;2.78;;;26.60;79.40;;;;;;5060527;28;20031;-84
2022/05/17 12:35:32;;;;;;;5.40;2.83;;;26.90;80.20;;;;;;5055175;28;20041;-84
2022/05/17 12:37:58;;;;;;;3.75;2.50;;;27.20;80.10;;;;;;5061139;28;20033;-83
2022/05/17 12:43:23;;;;;;;7.75;2.50;;;27.60;80.10;;;;;;5057489;28;20082;-82
2022/05/17 12:45:49;;;;;;;4.20;2.13;;;27.40;78.40;;;;;;5057257;28;20133;-82
2022/05/17 12:48:32;;;;;;;3.78;2.25;;;27.50;77.20;;;;;;5061990;28;20032;-83
2022/05/17 12:51:01;;;;;;;4.55;2.42;;;27.40;76.50;;;;;;5060823;28;20037;-82
2022/05/17 12:53:41;;;;;;;3.22;2.10;;;27.30;75.80;;;;;;5068495;28;20025;-83
2022/05/17 12:56:12;;;;;;;3.40;2.20;;;27.20;76.10;;;;;;5058348;28;20075;-82
2022/05/17 12:58:53;;;;;;;5.95;4.05;;;27.40;75.10;;;;;;5059267;28;20113;-82
2022/05/17 13:01:31;;;;;;;2.95;2.30;;;27.50;74.90;;;;;;5057160;28;20036;-82
2022/05/17 13:03:59;;;;;;;5.50;2.25;;;27.40;73.30;;;;;;5051006;28;20025;-81
2022/05/17 13:06:46;;;;;;;4.15;2.00;;;27.50;73.50;;;;;;5054905;28;20032;-82
2022/05/17 13:09:23;;;;;;;4.20;2.17;;;27.40;73.10;;;;;;5058248;28;20028;-81
2022/05/17 13:11:50;;;;;;;3.67;2.30;;;27.70;70.50;;;;;;5052976;28;21291;-82
2022/05/17 13:14:33;;;;;;;3.35;2.00;;;27.70;71.00;;;;;;5048836;28;20179;-81
2022/05/17 13:17:10;;;;;;;3.83;1.92;;;28.00;71.10;;;;;;5049623;28;20029;-82
2022/05/17 13:19:38;;;;;;;4.55;2.30;;;27.70;69.50;;;;;;5052662;28;20039;-81
2022/05/17 13:22:04;;;;;;;5.78;2.35;;;27.80;70.30;;;;;;5049576;28;20767;-82
2022/05/17 13:24:37;;;;;;;5.35;2.17;;;28.00;70.00;;;;;;5047019;28;20142;-82
2022/05/17 13:27:36;;;;;;;4.72;2.20;;;27.90;69.90;;;;;;5052294;28;20110;-83
2022/05/17 13:30:37;;;;;;;3.83;2.25;;;27.80;70.60;;;;;;5053550;28;20036;-81
2022/05/17 13:33:07;;;;;;;5.45;1.80;;;27.70;71.90;;;;;;5065637;28;20403;-82
2022/05/17 13:35:35;;;;;;;2.92;1.88;;;27.80;70.20;;;;;;5057255;28;20036;-80
2022/05/17 13:38:13;;;;;;;10.32;6.00;;;27.90;68.80;;;;;;5072191;28;20360;-82
2022/05/17 13:40:44;;;;;;;5.30;2.40;;;27.90;69.50;;;;;;5071208;28;20024;-81
2022/05/17 13:43:34;;;;;;;4.32;2.45;;;27.80;70.30;;;;;;5075632;28;20025;-81
2022/05/17 13:46:18;;;;;;;3.72;2.33;;;27.60;71.20;;;;;;5077699;28;20025;-80
2022/05/17 13:48:49;;;;;;;5.70;2.28;;;27.60;71.00;;;;;;5071607;28;20020;-82
2022/05/17 13:51:20;;;;;;;3.38;2.13;;;27.60;69.50;;;;;;5077799;28;20048;-82
2022/05/17 13:53:51;;;;;;;3.08;2.17;;;27.40;71.40;;;;;;5078812;28;20029;-83
2022/05/17 13:56:23;;;;;;;4.20;2.28;;;27.20;71.10;;;;;;5071184;28;20036;-81
2022/05/17 13:58:49;;;;;;;4.50;2.28;;;27.10;70.70;;;;;;5073103;28;20034;-84
2022/05/17 14:01:32;;;;;;;4.47;1.90;;;27.10;70.80;;;;;;5080246;28;20087;-82
2022/05/17 14:04:41;;;;;;;5.18;2.53;;;27.20;69.50;;;;;;5058760;28;20028;-84
2022/05/17 14:07:31;;;;;;;4.80;2.20;;;27.30;70.00;;;;;;5092040;28;20036;-82
2022/05/17 14:13:14;;;;;;;4.82;2.50;;;27.60;69.40;;;;;;5075436;28;19916;-80
2022/05/17 14:15:41;;;;;;;3.10;2.08;;;27.80;68.80;;;;;;5070947;28;20405;-81
2022/05/17 14:18:36;;;;;;;3.60;1.90;;;27.90;67.90;;;;;;5069263;28;20120;-83
2022/05/17 14:21:06;;;;;;;4.07;2.28;;;27.90;67.10;;;;;;5064385;28;20064;-81
2022/05/17 14:23:32;;;;;;;5.63;2.20;;;28.00;67.60;;;;;;5065850;28;20083;-81
2022/05/17 14:25:58;;;;;;;5.22;2.38;;;28.10;67.20;;;;;;5070104;28;20029;-83
2022/05/17 14:28:24;;;;;;;3.38;1.95;;;28.20;67.00;;;;;;5062312;28;20046;-84
2022/05/17 14:30:50;;;;;;;4.88;1.88;;;27.80;66.20;;;;;;5065840;28;20088;-83
2022/05/17 14:33:18;;;;;;;3.72;1.80;;;28.20;65.60;;;;;;5076378;28;20048;-84
2022/05/17 14:35:44;;;;;;;2.88;1.83;;;27.90;65.00;;;;;;5068412;28;20020;-84
2022/05/17 14:38:10;;;;;;;3.22;1.50;;;;;;;;;;5057859;28;20025;-81
2022/05/17 14:40:36;;;;;;;3.20;1.73;;;;;;;;;;5063384;28;20486;-82
2022/05/17 14:43:04;;;;;;;2.38;1.67;;;27.70;60.90;;;;;;5058290;28;20081;-82
2022/05/17 14:45:29;;;;;;;3.30;1.88;;;27.60;62.60;;;;;;5059052;28;20104;-84
2022/05/17 14:47:58;;;;;;;2.83;1.85;;;27.40;64.10;;;;;;5062382;28;20437;-82
2022/05/17 14:50:23;;;;;;;3.53;1.90;;;27.30;65.10;;;;;;5067929;28;20025;-82
2022/05/17 14:52:51;;;;;;;3.83;2.10;;;27.40;65.40;;;;;;5074118;28;20063;-82
2022/05/17 14:55:22;;;;;;;3.65;1.85;;;27.50;66.20;;;;;;5069673;28;20033;-84
2022/05/17 14:57:49;;;;;;;3.03;1.90;;;;;;;;;;5070200;28;20028;-83
2022/05/17 15:00:18;;;;;;;2.88;1.98;;;27.60;65.50;;;;;;5059181;28;20029;-82
2022/05/17 15:02:56;;;;;;;3.67;2.08;;;27.60;66.40;;;;;;5055805;28;20037;-80
2022/05/17 15:05:23;;;;;;;2.60;1.85;;;;;;;;;;5049770;28;20044;-81
2022/05/17 15:07:51;;;;;;;5.38;2.10;;;27.90;65.00;;;;;;5052249;28;20191;-82
2022/05/17 15:10:19;;;;;;;3.25;2.17;;;28.10;66.00;;;;;;5061710;28;20017;-82
2022/05/17 15:12:46;;;;;;;3.03;1.80;;;28.10;65.30;;;;;;5079379;28;20047;-83
2022/05/17 15:15:12;;;;;;;3.30;1.90;;;27.70;65.40;;;;;;5074731;28;20054;-84
2022/05/17 15:17:40;;;;;;;4.43;2.00;;;27.40;64.40;;;;;;5059255;28;20025;-83
2022/05/17 15:20:10;;;;;;;3.60;2.10;;;27.60;65.00;;;;;;5048808;28;20040;-82
2022/05/17 15:22:41;;;;;;;2.95;1.70;;;27.30;64.70;;;;;;5050716;28;20017;-82
2022/05/17 15:25:10;;;;;;;2.50;1.48;;;27.40;64.70;;;;;;5056425;28;20029;-85
2022/05/17 15:27:36;;;;;;;4.32;1.95;;;27.20;63.90;;;;;;5049331;28;20434;-80
2022/05/17 15:30:04;;;;;;;3.45;1.98;;;27.20;63.60;;;;;;5059763;28;20041;-82
2022/05/17 15:32:31;;;;;;;3.55;1.75;;;27.10;64.20;;;;;;5053625;28;20040;-83
2022/05/17 15:34:57;;;;;;;7.47;1.65;;;27.30;63.60;;;;;;5057965;28;20319;-83
2022/05/17 15:37:24;;;;;;;3.38;1.80;;;;;;;;;;5045093;28;20100;-82
2022/05/17 15:39:50;;;;;;;2.78;1.60;;;;;;;;;;5074133;28;20082;-83
2022/05/17 15:42:17;;;;;;;1.95;1.50;;;27.20;62.20;;;;;;5065285;28;20032;-85
2022/05/17 15:44:43;;;;;;;3.17;1.75;;;;;;;;;;5067569;28;20028;-83
2022/05/17 15:53:24;;;;;;;3.25;1.83;;;27.20;63.40;;;;;;5074010;28;20027;-83
2022/05/17 15:55:57;;;;;;;3.17;1.80;;;27.00;63.30;;;;;;5069048;28;20038;-83
2022/05/17 15:58:26;;;;;;;3.35;1.80;;;27.10;64.60;;;;;;5069958;28;20025;-82
2022/05/17 16:00:52;;;;;;;3.47;1.70;;;27.20;63.70;;;;;;5068327;28;20043;-82
2022/05/17 16:03:22;;;;;;;3.88;2.00;;;27.20;63.60;;;;;;5070632;28;20127;-82
2022/05/17 16:05:48;;;;;;;3.67;2.03;;;27.30;63.00;;;;;;5067600;28;20032;-84
2022/05/17 16:08:14;;;;;;;4.18;1.58;;;27.20;63.10;;;;;;5068480;28;20112;-83
2022/05/17 16:10:43;;;;;;;2.15;1.50;;;27.20;63.10;;;;;;5075021;28;20063;-83
2022/05/17 16:13:10;;;;;;;4.93;1.67;;;27.30;63.70;;;;;;5081240;28;20031;-83
2022/05/17 16:15:45;;;;;;;2.75;1.85;;;27.40;64.40;;;;;;5073619;28;20117;-82
2022/05/17 16:18:18;;;;;;;5.53;1.92;;;27.50;65.00;;;;;;5076899;28;20032;-83
2022/05/17 16:20:45;;;;;;;3.05;1.80;;;27.50;64.10;;;;;;5071183;28;20222;-83
2022/05/17 16:23:13;;;;;;;5.28;1.83;;;27.50;64.30;;;;;;5074865;28;20062;-82
2022/05/17 16:25:41;;;;;;;2.53;1.55;;;27.40;63.60;;;;;;5083525;28;20032;-82
2022/05/17 16:28:07;;;;;;;2.80;1.75;;;;;;;;;;5071407;28;20025;-83
2022/05/17 16:30:36;;;;;;;4.53;1.98;;;27.30;62.50;;;;;;5079749;28;20062;-81
2022/05/17 16:33:02;;;;;;;4.43;2.00;;;27.30;63.10;;;;;;5068112;28;20107;-83
2022/05/17 16:35:34;;;;;;;4.65;1.70;;;27.40;62.70;;;;;;5077642;28;20032;-81
2022/05/17 16:38:00;;;;;;;3.97;2.13;;;27.40;62.70;;;;;;5082252;28;20107;-82
2022/05/17 16:40:27;;;;;;;2.92;1.67;;;27.50;62.40;;;;;;5083930;28;20119;-81
2022/05/17 16:42:54;;;;;;;4.10;1.80;;;27.60;62.70;;;;;;5076751;28;20024;-82
2022/05/17 16:45:21;;;;;;;3.40;1.83;;;27.70;62.60;;;;;;5070517;28;20124;-81
2022/05/17 16:47:48;;;;;;;4.00;1.80;;;27.70;62.90;;;;;;5075319;28;20478;-83
2022/05/17 16:50:34;;;;;;;5.05;2.00;;;27.70;62.40;;;;;;5070419;28;20031;-82
2022/05/17 16:53:01;;;;;;;4.88;2.90;;;27.60;62.50;;;;;;5080125;28;20028;-82
2022/05/17 16:55:27;;;;;;;2.40;1.58;;;27.70;63.10;;;;;;5061050;28;20028;-84
2022/05/17 16:57:53;;;;;;;3.00;1.80;;;27.80;62.30;;;;;;5059657;28;20639;-82
2022/05/17 17:00:19;;;;;;;3.88;1.83;;;27.90;62.40;;;;;;5056756;28;20056;-82
2022/05/17 17:02:46;;;;;;;3.53;1.70;;;28.00;62.70;;;;;;5060757;28;20029;-82
2022/05/17 17:05:21;;;;;;;3.55;1.73;;;27.90;62.70;;;;;;5053608;28;20119;-81
2022/05/17 17:07:46;;;;;;;4.80;2.05;;;27.80;62.60;;;;;;5055197;28;20024;-82
2022/05/17 17:10:27;;;;;;;3.03;2.10;;;27.50;63.00;;;;;;5051636;28;20031;-81
2022/05/17 17:12:53;;;;;;;3.40;1.67;;;27.50;64.40;;;;;;5066039;28;20017;-83
2022/05/17 17:15:21;;;;;;;2.67;1.55;;;;;;;;;;5054217;28;20088;-82
2022/05/17 17:17:47;;;;;;;3.20;1.70;;;27.50;63.00;;;;;;5061252;28;20085;-82
2022/05/17 17:20:14;;;;;;;5.32;1.95;;;27.50;63.40;;;;;;5057209;28;20047;-82
2022/05/17 17:22:40;;;;;;;4.78;2.10;;;27.60;63.50;;;;;;5063760;28;20025;-82
2022/05/17 17:25:08;;;;;;;5.07;2.20;;;27.60;63.80;;;;;;5061909;28;20024;-82
2022/05/17 17:27:35;;;;;;;3.38;1.83;;;27.70;63.90;;;;;;5061628;28;20752;-82
2022/05/17 17:30:01;;;;;;;4.65;2.10;;;27.50;64.10;;;;;;5052329;28;20129;-82
2022/05/17 17:37:56;;;;;;;5.10;2.30;;;27.00;64.50;;;;;;5059666;28;20051;-81
2022/05/17 17:40:22;;;;;;;3.63;1.65;;;27.20;64.90;;;;;;5051847;28;20502;-82
2022/05/17 17:42:49;;;;;;;5.32;2.40;;;27.40;64.80;;;;;;5048892;28;20029;-82
2022/05/17 17:45:23;;;;;;;7.18;2.20;;;27.40;65.20;;;;;;5052033;28;20066;-80
2022/05/17 17:47:53;;;;;;;4.63;2.30;;;27.30;64.90;;;;;;5053842;28;20079;-82
2022/05/17 17:50:21;;;;;;;3.17;2.20;;;27.00;65.40;;;;;;5047978;28;20863;-83
2022/05/17 17:52:47;;;;;;;3.33;1.90;;;;;;;;;;5055799;28;20028;-81
2022/05/17 17:55:13;;;;;;;3.05;1.83;;;;;;;;;;5047799;28;20086;-82
2022/05/17 17:57:39;;;;;;;2.72;1.70;;;;;;;;;;5053484;28;20039;-82
2022/05/17 18:00:07;;;;;;;3.95;1.83;;;26.20;66.10;;;;;;5059040;28;20040;-82
2022/05/17 18:02:33;;;;;;;2.58;1.60;;;;;;;;;;5051901;28;20031;-83
2022/05/17 18:04:59;;;;;;;5.68;2.10;;;;;;;;;;5057129;28;20036;-82
2022/05/17 18:07:25;;;;;;;3.40;2.30;;;;;;;;;;5051014;28;20079;-83
2022/05/17 18:09:51;;;;;;;4.20;2.10;;;;;;;;;;5054229;28;20106;-79
2022/05/17 18:12:24;;;;;;;3.83;2.22;;;25.60;68.10;;;;;;5055557;28;20036;-82
2022/05/17 18:14:52;;;;;;;3.33;1.92;;;;;;;;;;5064252;28;20059;-81
2022/05/17 18:17:18;;;;;;;3.85;2.35;;;;;;;;;;5054446;28;20028;-81
2022/05/17 18:19:44;;;;;;;3.25;2.10;;;25.50;68.70;;;;;;5055446;28;20715;-82
2022/05/17 18:22:09;;;;;;;4.15;2.30;;;25.30;71.50;;;;;;5050132;28;20029;-83
2022/05/17 18:24:35;;;;;;;3.63;2.13;;;25.30;70.20;;;;;;5060063;28;20016;-82
2022/05/17 18:27:01;;;;;;;6.15;2.47;;;25.30;70.50;;;;;;5045997;28;20120;-82
2022/05/17 18:29:31;;;;;;;3.88;2.50;;;25.20;69.90;;;;;;5055258;28;20404;-83
2022/05/17 18:32:00;;;;;;;5.40;2.25;;;25.20;70.80;;;;;;5054817;28;20036;-83
2022/05/17 18:37:12;;;;;;;5.07;3.55;;;24.90;71.60;;;;;;5054472;28;20059;-81
2022/05/17 18:39:38;;;;;;;5.93;2.65;;;25.10;72.40;;;;;;5069269;28;20025;-83
2022/05/17 18:42:05;;;;;;;3.75;2.47;;;24.90;72.50;;;;;;5057876;28;20016;-83
2022/05/17 18:44:31;;;;;;;6.45;3.88;;;;;;;;;;5076007;28;20040;-82
2022/05/17 18:46:59;;;;;;;4.97;2.65;;;24.70;73.20;;;;;;5074437;28;20037;-82
2022/05/17 18:49:31;;;;;;;5.97;3.60;;;24.70;73.60;;;;;;5071201;28;20096;-83
2022/05/17 18:51:57;;;;;;;3.85;2.25;;;;;;;;;;5068311;28;20124;-82
2022/05/17 18:54:23;;;;;;;4.30;2.17;;;24.60;73.30;;;;;;5070189;28;20032;-83
2022/05/17 18:56:49;;;;;;;5.10;2.63;;;;;;;;;;5067340;28;20086;-82
2022/05/17 18:59:16;;;;;;;4.03;2.35;;;;;;;;;;5067503;28;20055;-82
2022/05/17 19:01:42;;;;;;;4.35;2.78;;;24.40;74.20;;;;;;5064406;28;20033;-80
2022/05/17 19:04:08;;;;;;;7.57;2.88;;;24.30;75.30;;;;;;5073214;28;20040;-82
2022/05/17 19:06:34;;;;;;;6.53;2.90;;;24.20;76.90;;;;;;5077180;28;20027;-84
2022/05/17 19:14:28;;;;;;;4.75;2.80;;;24.00;79.40;;;;;;5072223;28;20048;-84
2022/05/17 19:17:00;;;;;;;4.85;3.30;;;23.90;80.00;;;;;;5069897;28;20033;-82
2022/05/17 19:19:36;;;;;;;4.68;2.72;;;23.80;80.80;;;;;;5085504;28;20414;-81
2022/05/17 19:22:26;;;;;;;4.47;2.60;;;23.70;81.40;;;;;;5069231;28;20044;-84
2022/05/17 19:24:52;;;;;;;6.20;2.90;;;23.50;82.30;;;;;;5068503;28;20033;-83
2022/05/17 19:27:18;;;;;;;4.45;2.72;;;23.50;82.70;;;;;;5072043;28;20048;-82
2022/05/17 19:29:44;;;;;;;4.55;2.50;;;23.40;82.90;;;;;;5069417;28;20394;-84
2022/05/17 19:32:12;;;;;;;4.43;3.13;;;23.30;83.20;;;;;;5071454;28;20024;-84
2022/05/17 19:34:45;;;;;;;4.07;2.70;;;23.20;83.80;;;;;;5057128;28;20024;-83
2022/05/17 19:39:56;;;;;;;4.43;2.78;;;22.90;83.70;;;;;;5075810;28;20043;-82
2022/05/17 19:42:22;;;;;;;4.63;2.40;;;22.80;84.60;;;;;;5069544;28;20025;-81
2022/05/17 19:44:48;;;;;;;4.78;2.80;;;;;;;;;;5070616;28;20020;-82
2022/05/17 19:47:19;;;;;;;5.32;2.63;;;22.60;84.80;;;;;;5067150;28;20024;-84
2022/05/17 19:49:51;;;;;;;6.03;2.60;;;22.50;85.80;;;;;;5066267;28;20547;-80
2022/05/17 19:52:17;;;;;;;5.75;2.60;;;;;;;;;;5070681;28;20250;-84
2022/05/17 19:54:43;;;;;;;4.57;2.90;;;;;;;;;;5067399;28;20043;-83
2022/05/17 19:57:09;;;;;;;6.28;3.10;;;;;;;;;;5063158;28;20013;-83
2022/05/17 19:59:35;;;;;;;7.25;2.78;;;;;;;;;;5066728;28;20036;-83
2022/05/17 20:02:01;;;;;;;6.43;3.33;;;22.20;87.00;;;;;;5068793;28;20017;-84
2022/05/17 20:04:29;;;;;;;5.05;3.30;;;22.10;87.90;;;;;;5067388;28;20161;-83
2022/05/17 20:06:56;;;;;;;6.97;3.55;;;22.00;88.10;;;;;;5074846;28;20514;-83
2022/05/17 20:09:25;;;;;;;6.18;3.10;;;22.00;88.50;;;;;;5069137;28;20031;-82
2022/05/17 20:11:52;;;;;;;6.90;3.20;;;21.90;88.60;;;;;;5071865;28;20050;-83
2022/05/17 20:14:18;;;;;;;5.03;3.10;;;21.90;89.00;;;;;;5063601;28;20062;-80
2022/05/17 20:16:43;;;;;;;6.32;3.28;;;22.00;89.30;;;;;;5067687;28;20104;-82
2022/05/17 20:19:09;;;;;;;7.38;3.05;;;21.80;89.70;;;;;;5069231;28;20032;-82
2022/05/17 20:21:37;;;;;;;4.65;3.00;;;21.80;90.00;;;;;;5065519;28;20048;-84
2022/05/17 20:24:06;;;;;;;6.82;3.83;;;21.80;90.30;;;;;;5072336;28;20013;-81
2022/05/17 20:26:33;;;;;;;6.68;3.60;;;;;;;;;;5070249;28;20049;-82
2022/05/17 20:29:01;;;;;;;4.80;3.40;;;21.70;89.90;;;;;;5067210;28;20032;-84
2022/05/17 20:31:27;;;;;;;5.90;3.45;;;;;;;;;;5068991;28;20033;-84
2022/05/17 20:33:53;;;;;;;5.32;3.25;;;;;;;;;;5065245;28;20029;-83
2022/05/17 20:36:20;;;;;;;6.38;3.05;;;21.60;90.10;;;;;;5069908;28;20032;-82
2022/05/17 20:38:47;;;;;;;5.05;3.22;;;21.50;90.40;;;;;;5067334;28;20024;-83
2022/05/17 20:41:14;;;;;;;4.13;3.05;;;21.50;90.50;;;;;;5059357;28;20037;-81
2022/05/17 20:43:42;;;;;;;6.05;3.15;;;21.30;90.60;;;;;;5062666;28;20108;-82
2022/05/17 20:48:55;;;;;;;4.72;2.90;;;21.50;90.50;;;;;;5071844;28;20629;-82
2022/05/17 20:51:21;;;;;;;4.50;2.60;;;;;;;;;;5074354;28;20052;-81
2022/05/17 20:53:47;;;;;;;4.85;3.10;;;;;;;;;;5071797;28;20040;-82
2022/05/17 20:56:32;;;;;;;6.55;2.72;;;21.20;90.40;;;;;;5065892;28;20032;-85
2022/05/17 20:58:59;;;;;;;6.45;3.40;;;21.10;91.00;;;;;;5069059;28;20417;-84
2022/05/17 21:01:27;;;;;;;5.10;2.85;;;21.10;90.90;;;;;;5076154;28;20033;-83
2022/05/17 21:03:53;;;;;;;4.90;2.92;;;;;;;;;;5063200;28;20021;-83
2022/05/17 21:06:21;;;;;;;5.03;3.55;;;21.00;91.70;;;;;;5075015;28;24671;-85
2022/05/17 21:08:51;;;;;;;8.35;3.40;;;20.90;91.80;;;;;;5073340;28;20032;-86
2022/05/17 21:11:18;;;;;;;6.15;3.85;;;;;;;;;;5076622;28;20013;-84
2022/05/17 21:13:44;;;;;;;5.30;3.55;;;;;;;;;;5077028;28;20523;-85
2022/05/17 21:16:10;;;;;;;7.38;3.67;;;;;;;;;;5078226;28;20012;-85
2022/05/17 21:18:37;;;;;;;5.28;3.38;;;20.60;92.60;;;;;;5091643;28;20032;-84
2022/05/17 21:21:03;;;;;;;5.35;3.53;;;20.50;92.70;;;;;;5085285;28;20035;-87
2022/05/17 21:23:29;;;;;;;6.60;3.58;;;20.50;93.00;;;;;;5088812;28;20029;-88
2022/05/17 21:25:57;;;;;;;6.03;3.90;;;20.40;93.20;;;;;;5073114;28;20025;-85
2022/05/17 21:28:29;;;;;;;6.55;3.97;;;;;;;;;;5069881;28;20039;-83
2022/05/17 21:30:55;;;;;;;7.65;3.53;;;;;;;;;;5065515;28;20102;-82
2022/05/17 21:33:25;;;;;;;5.80;2.88;;;20.40;92.80;;;;;;5060618;28;20049;-83
2022/05/17 21:35:55;;;;;;;5.15;3.03;;;20.30;93.30;;;;;;5058554;28;20032;-83
2022/05/17 21:38:30;;;;;;;4.57;3.28;;;20.40;93.40;;;;;;5065044;28;20032;-85
2022/05/17 21:40:57;;;;;;;5.85;3.10;;;21.00;93.70;;;;;;5068878;28;20044;-83
2022/05/17 21:43:23;;;;;;;5.50;3.30;;;20.10;93.90;;;;;;5059494;28;20146;-85
2022/05/17 21:45:48;;;;;;;4.85;3.17;;;20.00;94.00;;;;;;5059954;28;20578;-85
2022/05/17 21:48:14;;;;;;;4.80;3.13;;;19.70;94.00;;;;;;5068190;28;20025;-83
2022/05/17 21:50:47;;;;;;;5.72;3.30;;;20.00;94.20;;;;;;5061958;28;20491;-85
2022/05/17 21:53:15;;;;;;;5.65;3.22;;;19.30;94.10;;;;;;5065928;28;20391;-84
2022/05/17 21:55:42;;;;;;;5.20;3.30;;;20.50;94.60;;;;;;5059480;28;20528;-83
2022/05/17 21:58:14;;;;;;;4.95;3.40;;;21.40;94.80;;;;;;5060360;28;20040;-83
2022/05/17 22:00:44;;;;;;;6.95;3.15;;;19.90;94.70;;;;;;5058733;28;20475;-83
2022/05/17 22:03:15;;;;;;;7.88;2.78;;;18.70;94.70;;;;;;5059769;28;20029;-84